Jixi, China
Current Conditions -  °F | °C
As of 11:30 AM on Saturday 25 Oct 2014 (Local Time) from UHWW Reporting Station
Haze Haze  
Wind Chill: 61°   Ceiling: 10000
Heat Index: 61°   Visibility: 3mi
Dew Point: 52°   Wind: 4mph
Humidity: 72%   Direction: NA
Pressure: 29.85"   Gusts: NA
Location:  45.3°N, 130.97°E
Report Text: UHWW 250330Z VRB02MPS 5000 HZ BKN100 16/11 Q1011 NOSIG RMKQFE757/1010 25CLRD70
Loading
Personal Weather Stations






























Interactive Weather Map
Tropical Storm Tracking
New forecast layout! Learn more

10-Day Weather Forecast

Advertisements
Track Severe Weather on mobile